createdAt,value
2022-09-12T00:04:24.618Z,13.62
2022-09-12T00:09:28.932Z,13.12
2022-09-12T00:14:31.545Z,13.20
2022-09-12T00:19:34.085Z,13.50
2022-09-12T00:24:37.883Z,13.25
2022-09-12T00:29:40.395Z,12.75
2022-09-12T00:34:43.003Z,13.41
2022-09-12T00:39:47.217Z,13.05
2022-09-12T00:44:52.833Z,12.87
2022-09-12T00:50:02.193Z,12.89
2022-09-12T00:55:11.556Z,13.05
2022-09-12T01:00:17.224Z,13.06
2022-09-12T01:05:20.558Z,13.53
2022-09-12T01:10:25.395Z,13.99
2022-09-12T01:15:28.136Z,14.82
2022-09-12T01:20:47.244Z,14.64
2022-09-12T01:26:03.980Z,13.65
2022-09-12T01:31:12.955Z,14.52
2022-09-12T01:36:34.463Z,14.98
2022-09-12T01:41:49.980Z,14.09
2022-09-12T01:46:59.111Z,13.12
2022-09-12T01:52:07.163Z,13.60
2022-09-12T01:57:15.111Z,13.84
2022-09-12T02:02:24.104Z,14.32
2022-09-12T02:07:33.000Z,13.08
2022-09-12T02:12:42.314Z,13.27
2022-09-12T02:17:50.663Z,14.45
2022-09-12T02:22:55.917Z,13.42
2022-09-12T02:28:02.468Z,13.67
2022-09-12T02:33:12.541Z,14.25
2022-09-12T02:38:24.782Z,14.15
2022-09-12T02:43:27.637Z,14.23
2022-09-12T02:48:35.431Z,14.09
2022-09-12T02:53:38.971Z,13.70
2022-09-12T02:58:41.644Z,14.23
2022-09-12T03:04:04.292Z,14.57
2022-09-12T03:09:13.240Z,14.73
2022-09-12T03:14:28.168Z,14.75
2022-09-12T03:19:39.950Z,14.20
2022-09-12T03:24:53.070Z,14.64
2022-09-12T03:30:00.100Z,14.46
2022-09-12T03:35:05.524Z,14.18
2022-09-12T03:40:10.212Z,14.43
2022-09-12T03:45:13.168Z,14.49
2022-09-12T03:50:17.136Z,14.04
2022-09-12T03:55:19.794Z,13.94
2022-09-12T04:00:22.655Z,13.35
2022-09-12T04:05:27.098Z,12.62
2022-09-12T04:10:29.505Z,12.43
2022-09-12T04:15:32.324Z,12.38
2022-09-12T04:20:37.362Z,12.64
2022-09-12T04:25:39.866Z,12.38
2022-09-12T04:30:42.550Z,12.24
2022-09-12T04:35:46.365Z,12.20
2022-09-12T04:40:48.809Z,11.97
2022-09-12T04:45:51.401Z,12.00
2022-09-12T04:50:55.351Z,12.22
2022-09-12T04:56:03.181Z,12.41
2022-09-12T05:01:06.940Z,12.96
2022-09-12T05:06:15.800Z,13.23
2022-09-12T05:11:24.177Z,12.41
2022-09-12T05:16:29.382Z,12.70
2022-09-12T05:21:33.516Z,12.57
2022-09-12T05:26:36.038Z,13.05
2022-09-12T05:31:39.111Z,12.46
2022-09-12T05:36:42.966Z,12.61
2022-09-12T05:41:45.703Z,12.86
2022-09-12T05:46:50.798Z,13.01
2022-09-12T05:51:54.602Z,13.01
2022-09-12T05:56:57.178Z,13.49
2022-09-12T06:02:00.360Z,13.82
2022-09-12T06:07:04.851Z,13.97
2022-09-12T06:12:08.684Z,14.23
2022-09-12T06:17:11.209Z,14.29
2022-09-12T06:22:14.998Z,14.59
2022-09-12T06:27:17.457Z,14.83
2022-09-12T06:32:20.240Z,14.73
2022-09-12T06:37:24.037Z,15.07
2022-09-12T06:42:26.541Z,15.13
2022-09-12T06:47:29.518Z,15.42
2022-09-12T06:52:33.323Z,15.67
2022-09-12T06:57:36.912Z,15.51
2022-09-12T07:02:39.484Z,15.74
2022-09-12T07:07:43.335Z,15.72
2022-09-12T07:12:45.822Z,15.43
2022-09-12T07:17:48.263Z,15.39
2022-09-12T07:22:52.886Z,15.48
2022-09-12T07:27:55.641Z,15.76
2022-09-12T07:32:58.062Z,16.03
2022-09-12T07:38:01.914Z,15.93
2022-09-12T07:43:04.392Z,16.23
2022-09-12T07:48:06.795Z,16.47
2022-09-12T07:53:11.274Z,16.89
2022-09-12T07:58:13.739Z,17.05
2022-09-12T08:03:16.344Z,17.32
2022-09-12T08:08:20.526Z,17.26
2022-09-12T08:13:23.060Z,17.16
2022-09-12T08:18:25.617Z,17.38
2022-09-12T08:23:30.654Z,17.38
2022-09-12T08:28:35.181Z,17.69
2022-09-12T08:33:38.038Z,18.05
2022-09-12T08:38:44.259Z,18.27
2022-09-12T08:44:05.131Z,18.53
2022-09-12T08:49:12.713Z,18.48
2022-09-12T08:54:21.871Z,19.10
2022-09-12T08:59:25.670Z,19.09
2022-09-12T09:04:50.243Z,19.56
2022-09-12T09:10:09.211Z,19.81
2022-09-12T09:15:42.036Z,20.02
2022-09-12T09:20:49.540Z,20.05
2022-09-12T09:25:59.351Z,20.53
2022-09-12T09:31:02.924Z,20.85
2022-09-12T09:36:16.932Z,20.69
2022-09-12T09:41:36.161Z,20.34
2022-09-12T09:46:38.743Z,20.15
2022-09-12T09:51:43.601Z,20.31
2022-09-12T09:56:47.820Z,21.24
2022-09-12T10:01:54.829Z,21.12
2022-09-12T10:06:59.684Z,21.89
2022-09-12T10:12:22.283Z,21.71
2022-09-12T10:17:33.808Z,21.06
2022-09-12T10:22:36.915Z,21.80
2022-09-12T10:27:42.925Z,22.08
2022-09-12T10:32:50.621Z,22.31
2022-09-12T10:37:55.866Z,21.85
2022-09-12T10:43:01.255Z,24.79
2022-09-12T10:48:21.781Z,23.52
2022-09-12T10:53:28.970Z,23.83
2022-09-12T10:58:53.656Z,22.33
2022-09-12T11:04:10.837Z,20.62
2022-09-12T11:09:26.225Z,21.88
2022-09-12T11:14:52.878Z,21.25
2022-09-12T11:20:09.564Z,24.67
2022-09-12T11:25:22.388Z,27.83
2022-09-12T11:30:27.471Z,27.64
2022-09-12T11:35:31.612Z,30.07
2022-09-12T11:40:42.390Z,31.45
2022-09-12T11:45:47.782Z,34.34
2022-09-12T11:50:50.294Z,33.88
2022-09-12T11:56:00.304Z,36.31
2022-09-12T12:01:12.455Z,35.38
2022-09-12T12:06:19.863Z,31.29
2022-09-12T12:11:34.179Z,27.22
2022-09-12T12:16:41.083Z,33.26
2022-09-12T12:21:45.168Z,34.46
2022-09-12T12:27:02.238Z,33.54
2022-09-12T12:32:26.463Z,33.87
2022-09-12T12:37:55.868Z,36.30
2022-09-12T12:43:00.740Z,34.08
2022-09-12T12:48:10.855Z,32.05
2022-09-12T12:53:20.876Z,31.80
2022-09-12T12:58:30.574Z,34.35
2022-09-12T13:03:35.364Z,31.92
2022-09-12T13:08:41.259Z,33.63
2022-09-12T13:13:51.176Z,34.61
2022-09-12T13:18:55.411Z,27.86
2022-09-12T13:24:02.610Z,31.00
2022-09-12T13:29:13.005Z,26.97
2022-09-12T13:34:21.697Z,28.38
2022-09-12T13:39:27.872Z,27.58
2022-09-12T13:44:32.863Z,25.51
2022-09-12T13:49:39.463Z,24.94
2022-09-12T13:54:45.612Z,25.00
2022-09-12T13:59:49.870Z,25.66
2022-09-12T14:05:10.634Z,25.75
2022-09-12T14:10:17.088Z,25.65
2022-09-12T14:15:27.248Z,26.26
2022-09-12T14:20:33.351Z,27.18
2022-09-12T14:25:41.396Z,27.62
2022-09-12T14:30:59.215Z,25.64
2022-09-12T14:36:18.463Z,24.86
2022-09-12T14:41:27.798Z,27.27
2022-09-12T14:46:34.495Z,27.54
2022-09-12T14:51:41.594Z,25.66
2022-09-12T14:56:53.763Z,26.51
2022-09-12T15:02:27.505Z,26.70
2022-09-12T15:07:35.265Z,26.35
2022-09-12T15:12:37.710Z,25.89
2022-09-12T15:17:40.122Z,24.64
2022-09-12T15:22:44.104Z,23.90
2022-09-12T15:27:46.942Z,23.64
2022-09-12T15:32:49.435Z,24.70
2022-09-12T15:37:53.277Z,24.54
2022-09-12T15:42:55.786Z,24.73
2022-09-12T15:47:58.785Z,24.77
2022-09-12T15:53:02.974Z,24.97
2022-09-12T15:58:07.379Z,25.05
2022-09-12T16:03:21.902Z,25.39
2022-09-12T16:08:26.258Z,24.68
2022-09-12T16:13:28.710Z,24.32
2022-09-12T16:18:31.460Z,24.34
2022-09-12T16:23:35.434Z,23.90
2022-09-12T16:28:37.864Z,23.96
2022-09-12T16:33:41.244Z,23.63
2022-09-12T16:38:47.284Z,24.05
2022-09-12T16:43:50.071Z,23.71
2022-09-12T16:48:54.399Z,23.41
2022-09-12T16:53:58.487Z,23.74
2022-09-12T16:59:01.162Z,23.53
2022-09-12T17:04:07.020Z,22.56
2022-09-12T17:09:13.057Z,22.21
2022-09-12T17:14:15.911Z,21.48
2022-09-12T17:19:21.004Z,21.35
2022-09-12T17:24:25.597Z,20.37
2022-09-12T17:29:28.516Z,20.48
2022-09-12T17:34:33.247Z,19.97
2022-09-12T17:39:37.014Z,19.18
2022-09-12T17:44:39.797Z,18.65
2022-09-12T17:49:42.332Z,19.01
2022-09-12T17:54:48.940Z,18.52
2022-09-12T17:59:53.549Z,17.86
2022-09-12T18:04:56.341Z,17.84
2022-09-12T18:10:00.226Z,17.32
2022-09-12T18:15:04.133Z,17.63
2022-09-12T18:20:07.385Z,17.66
2022-09-12T18:25:11.544Z,17.19
2022-09-12T18:30:21.566Z,16.96
2022-09-12T18:35:27.182Z,16.49
2022-09-12T18:40:31.188Z,16.59
2022-09-12T18:45:34.946Z,16.50
2022-09-12T18:50:37.723Z,17.02
2022-09-12T18:55:42.379Z,16.73
2022-09-12T19:00:48.017Z,16.61
2022-09-12T19:05:52.441Z,16.86
2022-09-12T19:10:59.412Z,16.45
2022-09-12T19:16:03.193Z,16.77
2022-09-12T19:21:06.887Z,16.89
2022-09-12T19:26:13.670Z,17.52
2022-09-12T19:31:18.847Z,17.61
2022-09-12T19:36:43.757Z,17.68
2022-09-12T19:41:47.443Z,17.14
2022-09-12T19:46:49.992Z,17.18
2022-09-12T19:51:54.635Z,17.54
2022-09-12T19:56:58.615Z,17.49
2022-09-12T20:02:01.303Z,17.66
2022-09-12T20:07:03.803Z,17.55
2022-09-12T20:12:08.227Z,17.27
2022-09-12T20:17:10.756Z,17.13
2022-09-12T20:22:13.254Z,17.38
2022-09-12T20:27:17.261Z,17.43
2022-09-12T20:32:19.765Z,17.17
2022-09-12T20:37:25.193Z,17.30
2022-09-12T20:42:29.435Z,17.33
2022-09-12T20:47:32.235Z,17.13
2022-09-12T20:52:35.000Z,17.03
2022-09-12T20:57:38.853Z,16.68
2022-09-12T21:02:41.622Z,16.38
2022-09-12T21:07:44.286Z,16.57
2022-09-12T21:12:48.323Z,16.80
2022-09-12T21:17:52.775Z,17.07
2022-09-12T21:22:57.936Z,17.20
2022-09-12T21:28:02.077Z,16.96
2022-09-12T21:33:04.671Z,16.84
2022-09-12T21:38:07.656Z,16.77
2022-09-12T21:43:12.997Z,16.21
2022-09-12T21:48:15.681Z,16.55
2022-09-12T21:53:18.358Z,16.38
2022-09-12T21:58:22.330Z,16.34
2022-09-12T22:03:26.044Z,16.65
2022-09-12T22:08:29.815Z,16.14
2022-09-12T22:13:33.787Z,16.14
2022-09-12T22:18:38.031Z,16.34
2022-09-12T22:23:58.181Z,16.41
2022-09-12T22:29:02.053Z,15.96
2022-09-12T22:34:05.054Z,16.21
2022-09-12T22:39:09.830Z,16.12
2022-09-12T22:44:14.251Z,16.26
2022-09-12T22:49:16.658Z,16.08
2022-09-12T22:54:19.090Z,16.12
2022-09-12T22:59:23.274Z,16.07
2022-09-12T23:04:25.868Z,16.31
2022-09-12T23:09:32.075Z,15.81
2022-09-12T23:14:38.544Z,14.67
2022-09-12T23:19:41.086Z,15.45
2022-09-12T23:24:43.559Z,15.76
2022-09-12T23:29:52.416Z,14.65
2022-09-12T23:34:55.051Z,13.60
2022-09-12T23:39:57.523Z,14.24
2022-09-12T23:45:01.748Z,14.88
2022-09-12T23:50:04.699Z,15.13
2022-09-12T23:55:07.985Z,14.56
